createdAt,value
2018-04-02T00:00:57.680Z,13.60
2018-04-02T00:03:26.304Z,14.20
2018-04-02T00:05:54.085Z,14.18
2018-04-02T00:08:22.381Z,15.73
2018-04-02T00:10:49.914Z,16.05
2018-04-02T00:13:17.413Z,15.73
2018-04-02T00:15:44.945Z,15.60
2018-04-02T00:18:12.438Z,14.63
2018-04-02T00:20:39.946Z,14.75
2018-04-02T00:23:07.654Z,15.18
2018-04-02T00:25:35.232Z,16.05
2018-04-02T00:28:02.872Z,18.35
2018-04-02T00:30:30.487Z,15.70
2018-04-02T00:32:58.103Z,17.55
2018-04-02T00:35:25.635Z,16.33
2018-04-02T00:37:54.566Z,16.00
2018-04-02T00:40:23.059Z,16.52
2018-04-02T00:42:50.668Z,16.95
2018-04-02T00:45:18.393Z,17.40
2018-04-02T00:47:46.921Z,15.85
2018-04-02T00:50:14.561Z,16.65
2018-04-02T00:52:42.157Z,16.15
2018-04-02T00:55:09.712Z,16.67
2018-04-02T00:57:37.344Z,16.42
2018-04-02T01:00:04.874Z,17.85
2018-04-02T01:02:33.628Z,15.50
2018-04-02T01:05:01.259Z,15.85
2018-04-02T01:07:31.331Z,16.08
2018-04-02T01:09:58.952Z,15.85
2018-04-02T01:12:26.531Z,15.95
2018-04-02T01:14:54.083Z,16.73
2018-04-02T01:17:21.612Z,16.58
2018-04-02T01:19:49.121Z,16.50
2018-04-02T01:22:16.622Z,15.90
2018-04-02T01:24:44.156Z,18.00
2018-04-02T01:27:17.334Z,17.37
2018-04-02T01:29:45.344Z,15.75
2018-04-02T01:32:13.065Z,15.32
2018-04-02T01:34:41.535Z,15.48
2018-04-02T01:37:10.190Z,15.98
2018-04-02T01:39:38.874Z,16.20
2018-04-02T01:42:10.602Z,16.00
2018-04-02T01:44:38.346Z,14.82
2018-04-02T01:47:08.774Z,17.87
2018-04-02T01:49:36.735Z,15.65
2018-04-02T01:52:06.631Z,15.30
2018-04-02T01:54:34.352Z,14.50
2018-04-02T01:57:03.711Z,15.15
2018-04-02T01:59:31.431Z,16.12
2018-04-02T02:01:58.977Z,15.68
2018-04-02T02:04:26.634Z,16.12
2018-04-02T02:06:54.324Z,15.43
2018-04-02T02:09:22.702Z,16.15
2018-04-02T02:11:50.225Z,16.17
2018-04-02T02:14:17.748Z,15.05
2018-04-02T02:16:45.390Z,15.73
2018-04-02T02:19:12.993Z,17.52
2018-04-02T02:21:40.628Z,16.62
2018-04-02T02:24:08.286Z,16.50
2018-04-02T02:26:36.207Z,16.30
2018-04-02T02:29:03.881Z,15.73
2018-04-02T02:31:32.578Z,17.55
2018-04-02T02:34:00.379Z,16.45
2018-04-02T02:36:28.612Z,16.25
2018-04-02T02:38:56.203Z,15.43
2018-04-02T02:41:24.632Z,16.67
2018-04-02T02:43:52.304Z,16.12
2018-04-02T02:46:19.914Z,15.43
2018-04-02T02:48:48.301Z,15.02
2018-04-02T02:51:16.325Z,17.75
2018-04-02T02:53:43.986Z,15.32
2018-04-02T02:56:11.482Z,16.95
2018-04-02T02:58:39.862Z,16.77
2018-04-02T03:01:07.663Z,17.02
2018-04-02T03:03:35.251Z,15.98
2018-04-02T03:06:02.966Z,15.85
2018-04-02T03:08:30.507Z,16.65
2018-04-02T03:10:58.012Z,17.62
2018-04-02T03:13:25.573Z,17.42
2018-04-02T03:15:53.096Z,17.02
2018-04-02T03:18:20.742Z,14.32
2018-04-02T03:20:48.271Z,16.17
2018-04-02T03:23:15.762Z,16.00
2018-04-02T03:25:44.753Z,16.58
2018-04-02T03:28:12.367Z,16.48
2018-04-02T03:30:39.989Z,16.23
2018-04-02T03:33:07.576Z,17.33
2018-04-02T03:35:35.175Z,18.10
2018-04-02T03:38:02.966Z,16.42
2018-04-02T03:40:30.569Z,17.35
2018-04-02T03:42:58.056Z,17.75
2018-04-02T03:45:26.436Z,17.35
2018-04-02T03:47:54.739Z,16.85
2018-04-02T03:50:22.391Z,16.77
2018-04-02T03:52:51.083Z,15.82
2018-04-02T03:55:18.808Z,18.00
2018-04-02T03:57:46.477Z,17.20
2018-04-02T04:00:15.404Z,17.02
2018-04-02T04:02:43.548Z,18.25
2018-04-02T04:05:11.993Z,18.42
2018-04-02T04:07:39.576Z,16.85
2018-04-02T04:10:07.171Z,16.67
2018-04-02T04:12:34.682Z,17.67
2018-04-02T04:15:02.167Z,16.80
2018-04-02T04:17:29.631Z,17.30
2018-04-02T04:19:57.107Z,17.37
2018-04-02T04:22:24.603Z,17.12
2018-04-02T04:24:52.237Z,16.55
2018-04-02T04:27:19.848Z,16.23
2018-04-02T04:29:48.159Z,18.20
2018-04-02T04:32:15.677Z,18.30
2018-04-02T04:34:43.176Z,15.32
2018-04-02T04:37:10.699Z,18.00
2018-04-02T04:39:38.202Z,17.75
2018-04-02T04:42:05.735Z,15.70
2018-04-02T04:44:33.975Z,19.37
2018-04-02T04:47:01.484Z,16.40
2018-04-02T04:49:28.972Z,17.77
2018-04-02T04:51:56.482Z,17.20
2018-04-02T04:54:23.965Z,17.35
2018-04-02T04:56:51.446Z,17.95
2018-04-02T04:59:20.735Z,17.35
2018-04-02T05:01:48.330Z,17.37
2018-04-02T05:04:15.976Z,18.60
2018-04-02T05:06:43.642Z,16.75
2018-04-02T05:09:11.582Z,18.40
2018-04-02T05:11:39.273Z,17.27
2018-04-02T05:14:06.828Z,17.98
2018-04-02T05:16:35.139Z,18.42
2018-04-02T05:19:03.467Z,18.20
2018-04-02T05:21:31.368Z,18.10
2018-04-02T05:23:58.954Z,16.95
2018-04-02T05:26:26.583Z,17.33
2018-04-02T05:28:54.330Z,17.65
2018-04-02T05:31:21.885Z,19.25
2018-04-02T05:33:49.437Z,16.50
2018-04-02T05:36:17.224Z,17.52
2018-04-02T05:38:44.774Z,17.12
2018-04-02T05:41:12.286Z,18.00
2018-04-02T05:43:39.809Z,18.42
2018-04-02T05:46:07.428Z,17.62
2018-04-02T05:48:35.026Z,17.58
2018-04-02T05:51:02.577Z,17.17
2018-04-02T05:53:30.777Z,18.30
2018-04-02T05:55:58.283Z,18.23
2018-04-02T05:58:25.809Z,18.55
2018-04-02T06:00:54.077Z,17.85
2018-04-02T06:03:21.751Z,16.52
2018-04-02T06:05:50.121Z,17.87
2018-04-02T06:08:17.957Z,17.42
2018-04-02T06:10:49.259Z,17.92
2018-04-02T06:13:16.815Z,15.98
2018-04-02T06:15:44.344Z,15.43
2018-04-02T06:18:11.869Z,16.83
2018-04-02T06:20:39.338Z,17.27
2018-04-02T06:23:06.834Z,16.23
2018-04-02T06:25:34.384Z,16.15
2018-04-02T06:28:02.670Z,17.08
2018-04-02T06:30:30.171Z,16.10
2018-04-02T06:32:58.767Z,14.85
2018-04-02T06:35:26.532Z,16.15
2018-04-02T06:37:54.325Z,14.82
2018-04-02T06:40:21.854Z,14.82
2018-04-02T06:42:49.513Z,14.98
2018-04-02T06:45:17.105Z,16.20
2018-04-02T06:47:46.592Z,14.05
2018-04-02T06:50:17.128Z,15.25
2018-04-02T06:52:44.889Z,13.93
2018-04-02T06:55:13.275Z,15.38
2018-04-02T06:57:41.059Z,13.90
2018-04-02T07:00:08.568Z,14.07
2018-04-02T07:02:36.065Z,13.25
2018-04-02T07:05:11.992Z,12.37
2018-04-02T07:07:39.741Z,13.65
2018-04-02T07:10:08.257Z,12.65
2018-04-02T07:12:37.360Z,10.65
2018-04-02T07:15:05.191Z,10.38
2018-04-02T07:17:32.792Z,11.38
2018-04-02T07:20:03.424Z,10.65
2018-04-02T07:22:33.136Z,11.05
2018-04-02T07:25:01.961Z,11.18
2018-04-02T07:27:29.661Z,12.20
2018-04-02T07:29:57.233Z,10.55
2018-04-02T07:32:24.709Z,9.07
2018-04-02T07:34:54.487Z,10.23
2018-04-02T07:37:23.725Z,10.40
2018-04-02T08:08:14.157Z,8.15
2018-04-02T08:11:03.188Z,7.00
2018-04-02T08:16:23.546Z,8.20
2018-04-02T08:21:41.290Z,8.30
2018-04-02T08:24:08.773Z,7.40
2018-04-02T08:26:37.011Z,7.60
2018-04-02T08:29:04.479Z,6.87
2018-04-02T08:31:31.949Z,6.53
2018-04-02T08:34:00.184Z,6.95
2018-04-02T08:36:27.662Z,6.87
2018-04-02T08:38:55.319Z,7.87
2018-04-02T08:44:20.022Z,6.57
2018-04-02T08:46:48.196Z,6.18
2018-04-02T08:49:15.707Z,6.47
2018-04-02T08:51:43.169Z,5.20
2018-04-02T08:54:10.657Z,6.68
2018-04-02T08:59:28.645Z,6.03
2018-04-02T09:01:56.127Z,6.20
2018-04-02T09:04:23.595Z,6.82
2018-04-02T09:06:51.132Z,7.47
2018-04-02T09:09:19.375Z,6.50
2018-04-02T09:11:47.134Z,6.55
2018-04-02T09:14:14.638Z,6.60
2018-04-02T09:16:42.114Z,6.57
2018-04-02T09:19:09.631Z,5.70
2018-04-02T09:21:37.110Z,5.62
2018-04-02T09:24:04.574Z,5.22
2018-04-02T09:26:32.151Z,5.12
2018-04-02T09:28:59.661Z,6.75
2018-04-02T09:31:27.135Z,6.28
2018-04-02T09:33:55.394Z,6.20
2018-04-02T09:36:23.625Z,6.25
2018-04-02T09:38:51.089Z,7.07
2018-04-02T09:41:19.002Z,6.70
2018-04-02T09:43:46.605Z,6.70
2018-04-02T09:46:14.110Z,7.05
2018-04-02T09:48:41.627Z,7.53
2018-04-02T09:51:09.182Z,6.22
2018-04-02T09:53:36.681Z,6.55
2018-04-02T09:56:04.171Z,6.55
2018-04-02T09:58:31.704Z,6.87
2018-04-02T10:01:01.107Z,6.70
2018-04-02T10:03:34.413Z,6.85
2018-04-02T10:06:02.023Z,5.22
2018-04-02T10:08:29.654Z,6.30
2018-04-02T10:10:57.106Z,5.47
2018-04-02T10:13:24.653Z,5.60
2018-04-02T10:15:52.967Z,5.78
2018-04-02T10:18:20.473Z,6.70
2018-04-02T10:20:48.339Z,5.95
2018-04-02T10:23:15.910Z,6.43
2018-04-02T10:25:45.475Z,5.82
2018-04-02T10:28:13.013Z,5.18
2018-04-02T10:30:40.705Z,4.07
2018-04-02T10:33:08.186Z,4.05
2018-04-02T10:35:35.686Z,3.35
2018-04-02T10:38:03.319Z,4.40
2018-04-02T10:40:30.938Z,4.18
2018-04-02T10:42:58.399Z,3.58
2018-04-02T10:45:25.893Z,4.18
2018-04-02T10:47:54.139Z,3.72
2018-04-02T10:50:21.657Z,5.60
2018-04-02T10:52:49.126Z,4.45
2018-04-02T10:55:16.598Z,3.75
2018-04-02T10:57:44.068Z,4.57
2018-04-02T11:00:11.544Z,3.80
2018-04-02T11:05:30.311Z,4.30
2018-04-02T11:08:12.498Z,4.95
2018-04-02T11:13:30.658Z,4.95
2018-04-02T11:15:58.140Z,4.00
2018-04-02T11:18:25.607Z,5.28
2018-04-02T11:20:53.103Z,4.60
2018-04-02T11:23:20.576Z,5.03
2018-04-02T11:25:48.029Z,5.15
2018-04-02T11:28:15.495Z,5.03
2018-04-02T11:30:43.003Z,5.50
2018-04-02T11:33:10.558Z,6.57
2018-04-02T11:35:38.038Z,6.20
2018-04-02T11:38:05.514Z,6.07
2018-04-02T11:40:32.974Z,6.03
2018-04-02T11:43:00.445Z,5.80
2018-04-02T11:45:29.266Z,6.28
2018-04-02T11:54:06.146Z,6.28
2018-04-02T11:56:33.692Z,7.60
2018-04-02T11:59:01.968Z,6.75
2018-04-02T12:01:29.432Z,7.07
2018-04-02T12:03:56.974Z,6.93
2018-04-02T12:06:25.164Z,7.55
2018-04-02T12:08:52.772Z,7.03
2018-04-02T12:11:20.315Z,6.68
2018-04-02T12:13:48.021Z,7.75
2018-04-02T12:16:15.544Z,7.60
2018-04-02T12:18:43.001Z,7.28
2018-04-02T12:21:11.678Z,8.45
2018-04-02T12:23:39.202Z,8.25
2018-04-02T12:26:06.677Z,7.10
2018-04-02T12:28:34.150Z,8.20
2018-04-02T12:31:02.384Z,7.55
2018-04-02T12:33:29.885Z,8.80
2018-04-02T12:35:58.135Z,7.43
2018-04-02T12:38:25.630Z,7.35
2018-04-02T12:40:53.893Z,8.48
2018-04-02T12:43:21.414Z,9.13
2018-04-02T12:45:49.280Z,8.80
2018-04-02T12:48:16.786Z,7.75
2018-04-02T12:50:44.282Z,8.35
2018-04-02T12:53:11.756Z,8.82
2018-04-02T12:55:39.214Z,9.63
2018-04-02T12:58:06.725Z,7.80
2018-04-02T13:00:34.209Z,7.82
2018-04-02T13:03:01.695Z,7.60
2018-04-02T13:05:29.258Z,9.40
2018-04-02T13:07:56.735Z,8.90
2018-04-02T13:10:24.208Z,8.30
2018-04-02T13:12:51.710Z,8.70
2018-04-02T13:15:19.186Z,7.80
2018-04-02T13:17:46.645Z,8.38
2018-04-02T13:20:14.130Z,8.55
2018-04-02T13:22:42.386Z,9.02
2018-04-02T13:25:09.843Z,8.32
2018-04-02T13:27:37.316Z,9.25
2018-04-02T13:30:04.848Z,7.32
2018-04-02T13:32:32.323Z,7.97
2018-04-02T13:34:59.806Z,7.70
2018-04-02T13:37:27.263Z,9.35
2018-04-02T13:39:54.717Z,8.27
2018-04-02T13:42:22.179Z,7.72
2018-04-02T13:44:49.625Z,7.25
2018-04-02T13:47:17.081Z,7.78
2018-04-02T13:49:44.546Z,7.90
2018-04-02T13:52:12.086Z,8.05
2018-04-02T13:54:40.311Z,8.23
2018-04-02T13:57:07.775Z,8.13
2018-04-02T13:59:35.236Z,8.48
2018-04-02T14:02:02.695Z,8.70
2018-04-02T14:04:30.185Z,8.98
2018-04-02T14:06:57.622Z,6.37
2018-04-02T14:09:25.372Z,6.70
2018-04-02T14:11:52.837Z,6.55
2018-04-02T14:14:20.284Z,6.95
2018-04-02T14:16:47.792Z,6.65
2018-04-02T14:19:15.282Z,6.45
2018-04-02T14:21:42.748Z,6.47
2018-04-02T14:24:10.223Z,6.18
2018-04-02T14:26:37.695Z,6.50
2018-04-02T14:29:05.182Z,5.78
2018-04-02T14:31:32.641Z,6.10
2018-04-02T14:34:00.116Z,6.82
2018-04-02T14:36:27.582Z,6.05
2018-04-02T14:38:55.085Z,5.85
2018-04-02T14:41:23.331Z,7.47
2018-04-02T14:43:50.796Z,5.28
2018-04-02T14:46:18.249Z,5.22
2018-04-02T14:48:45.707Z,5.70
2018-04-02T14:51:13.169Z,6.12
2018-04-02T14:53:40.644Z,6.43
2018-04-02T14:56:08.124Z,5.57
2018-04-02T14:58:35.587Z,6.20
2018-04-02T15:01:03.075Z,6.03
2018-04-02T15:03:32.021Z,6.25
2018-04-02T15:06:00.243Z,6.78
2018-04-02T15:08:27.715Z,7.90
2018-04-02T15:10:55.202Z,6.68
2018-04-02T15:13:22.659Z,6.78
2018-04-02T15:15:50.139Z,6.30
2018-04-02T15:18:17.625Z,7.50
2018-04-02T15:20:45.153Z,7.37
2018-04-02T15:23:12.619Z,7.60
2018-04-02T15:25:40.075Z,6.20
2018-04-02T15:28:07.558Z,7.32
2018-04-02T15:30:35.043Z,7.35
2018-04-02T15:33:02.519Z,7.95
2018-04-02T15:35:29.996Z,7.10
2018-04-02T15:37:57.483Z,8.10
2018-04-02T15:40:24.965Z,7.82
2018-04-02T15:42:52.454Z,7.82
2018-04-02T15:45:19.923Z,7.87
2018-04-02T15:47:47.410Z,8.18
2018-04-02T15:50:14.895Z,7.95
2018-04-02T15:52:42.352Z,8.35
2018-04-02T15:55:09.819Z,8.45
2018-04-02T15:57:37.353Z,7.57
2018-04-02T16:00:04.821Z,7.62
2018-04-02T16:02:32.291Z,9.73
2018-04-02T16:05:00.774Z,8.32
2018-04-02T16:07:28.271Z,8.10
2018-04-02T16:09:55.715Z,7.28
2018-04-02T16:12:23.174Z,8.25
2018-04-02T16:14:51.410Z,7.45
2018-04-02T16:17:18.887Z,7.30
2018-04-02T16:19:47.318Z,7.43
2018-04-02T16:22:14.767Z,7.18
2018-04-02T16:24:42.252Z,8.35
2018-04-02T16:27:09.711Z,8.05
2018-04-02T16:29:37.622Z,7.95
2018-04-02T16:32:05.125Z,8.45
2018-04-02T16:34:32.611Z,8.52
2018-04-02T16:37:00.161Z,7.43
2018-04-02T16:39:27.606Z,8.82
2018-04-02T16:41:55.203Z,7.40
2018-04-02T16:44:23.483Z,8.50
2018-04-02T16:46:51.783Z,8.75
2018-04-02T16:49:19.268Z,8.05
2018-04-02T16:51:46.842Z,7.82
2018-04-02T16:54:14.334Z,8.68
2018-04-02T16:56:42.583Z,8.10
2018-04-02T16:59:10.079Z,7.85
2018-04-02T17:01:37.552Z,7.93
2018-04-02T17:04:05.138Z,8.27
2018-04-02T17:06:32.637Z,7.78
2018-04-02T17:09:00.145Z,8.13
2018-04-02T17:11:27.678Z,9.05
2018-04-02T17:13:55.182Z,8.45
2018-04-02T17:16:22.656Z,10.30
2018-04-02T17:18:50.134Z,10.88
2018-04-02T17:21:17.628Z,11.45
2018-04-02T17:23:45.123Z,10.13
2018-04-02T17:26:12.631Z,9.50
2018-04-02T17:28:40.105Z,11.38
2018-04-02T17:31:07.635Z,11.02
2018-04-02T17:33:35.109Z,12.02
2018-04-02T17:36:02.564Z,12.27
2018-04-02T17:38:30.042Z,12.98
2018-04-02T17:40:57.509Z,11.75
2018-04-02T17:43:25.001Z,11.65
2018-04-02T17:45:53.242Z,13.02
2018-04-02T17:48:20.701Z,13.80
2018-04-02T17:50:48.182Z,13.70
2018-04-02T17:53:16.455Z,12.90
2018-04-02T17:55:43.919Z,12.65
2018-04-02T18:01:02.541Z,12.95
2018-04-02T18:03:30.004Z,13.55
2018-04-02T18:05:57.510Z,13.75
2018-04-02T18:08:24.984Z,14.75
2018-04-02T18:10:52.442Z,15.02
2018-04-02T18:13:19.969Z,15.85
2018-04-02T18:15:47.482Z,15.70
2018-04-02T18:18:14.998Z,15.27
2018-04-02T18:20:42.518Z,16.35
2018-04-02T18:23:10.053Z,16.75
2018-04-02T18:25:37.521Z,15.73
2018-04-02T18:28:04.982Z,16.02
2018-04-02T18:30:32.471Z,15.75
2018-04-02T18:32:59.928Z,18.10
2018-04-02T18:35:27.407Z,17.02
2018-04-02T18:37:54.943Z,16.65
2018-04-02T18:40:22.427Z,17.52
2018-04-02T18:42:49.927Z,18.17
2018-04-02T18:45:17.418Z,17.75
2018-04-02T18:47:44.865Z,18.23
2018-04-02T18:50:12.353Z,17.48
2018-04-02T18:52:40.726Z,18.37
2018-04-02T18:55:09.058Z,19.90
2018-04-02T18:57:36.555Z,19.83
2018-04-02T19:00:04.088Z,18.75
2018-04-02T19:02:31.542Z,18.60
2018-04-02T19:04:59.009Z,19.08
2018-04-02T19:07:26.482Z,18.52
2018-04-02T19:09:54.714Z,17.75
2018-04-02T19:12:22.228Z,18.75
2018-04-02T19:14:49.698Z,18.20
2018-04-02T19:17:17.323Z,17.85
2018-04-02T19:19:44.942Z,18.27
2018-04-02T19:22:13.293Z,18.50
2018-04-02T19:24:43.245Z,19.98
2018-04-02T19:27:10.858Z,18.30
2018-04-02T19:29:38.409Z,19.58
2018-04-02T19:32:06.100Z,19.37
2018-04-02T19:34:33.557Z,20.08
2018-04-02T19:37:01.146Z,18.90
2018-04-02T19:39:28.613Z,19.50
2018-04-02T19:41:56.116Z,18.70
2018-04-02T19:44:23.626Z,17.90
2018-04-02T19:46:51.094Z,19.45
2018-04-02T19:49:18.614Z,19.12
2018-04-02T19:51:46.122Z,18.60
2018-04-02T19:54:14.386Z,19.05
2018-04-02T19:56:41.879Z,19.77
2018-04-02T19:59:10.134Z,20.10
2018-04-02T20:01:39.005Z,22.40
2018-04-02T20:04:06.538Z,21.87
2018-04-02T20:06:34.027Z,22.25
2018-04-02T20:09:01.491Z,21.98
2018-04-02T20:11:28.954Z,22.85
2018-04-02T20:13:57.184Z,22.40
2018-04-02T20:16:24.668Z,22.80
2018-04-02T20:18:52.135Z,24.60
2018-04-02T20:21:19.594Z,26.73
2018-04-02T20:23:48.066Z,25.60
2018-04-02T20:26:15.586Z,25.90
2018-04-02T20:28:43.055Z,25.65
2018-04-02T20:31:10.537Z,23.87
2018-04-02T20:33:38.014Z,25.20
2018-04-02T20:36:05.483Z,25.80
2018-04-02T20:38:33.740Z,26.02
2018-04-02T20:41:01.198Z,27.20
2018-04-02T20:43:28.682Z,27.55
2018-04-02T20:45:56.141Z,27.92
2018-04-02T20:48:23.614Z,28.85
2018-04-02T20:50:51.085Z,29.58
2018-04-02T20:53:18.548Z,27.40
2018-04-02T20:55:46.610Z,29.30
2018-04-02T20:58:14.094Z,28.27
2018-04-02T21:00:41.570Z,28.23
2018-04-02T21:03:09.103Z,27.52
2018-04-02T21:05:36.584Z,30.37
2018-04-02T21:08:04.846Z,29.90
2018-04-02T21:10:32.332Z,30.52
2018-04-02T21:13:00.584Z,29.35
2018-04-02T21:15:28.055Z,28.23
2018-04-02T21:17:55.511Z,28.95
2018-04-02T21:20:22.979Z,30.90
2018-04-02T21:22:50.451Z,29.17
2018-04-02T21:25:17.979Z,33.17
2018-04-02T21:27:46.249Z,32.55
2018-04-02T21:30:13.719Z,33.70
2018-04-02T21:32:41.219Z,31.75
2018-04-02T21:35:08.705Z,30.98
2018-04-02T21:37:36.170Z,30.95
2018-04-02T21:40:03.636Z,30.67
2018-04-02T21:42:31.903Z,29.60
2018-04-02T21:44:59.387Z,32.78
2018-04-02T21:47:27.641Z,30.12
2018-04-02T21:49:55.104Z,30.85
2018-04-02T21:52:22.581Z,29.25
2018-04-02T21:54:50.806Z,30.27
2018-04-02T21:57:18.273Z,29.98
2018-04-02T21:59:45.762Z,31.30
2018-04-02T22:02:14.085Z,30.52
2018-04-02T22:04:41.564Z,29.95
2018-04-02T22:07:09.990Z,30.65
2018-04-02T22:09:37.470Z,29.37
2018-04-02T22:12:04.956Z,29.85
2018-04-02T22:14:32.440Z,29.90
2018-04-02T22:16:59.941Z,29.02
2018-04-02T22:19:27.416Z,31.45
2018-04-02T22:21:54.918Z,29.25
2018-04-02T22:24:23.167Z,27.70
2018-04-02T22:26:50.647Z,29.27
2018-04-02T22:29:18.900Z,29.23
2018-04-02T22:31:46.382Z,29.00
2018-04-02T22:34:13.842Z,29.50
2018-04-02T22:36:41.322Z,29.00
2018-04-02T22:39:08.784Z,27.95
2018-04-02T22:41:36.283Z,29.58
2018-04-02T22:44:03.764Z,28.95
2018-04-02T22:46:32.075Z,30.00
2018-04-02T22:48:59.547Z,30.12
2018-04-02T22:51:27.050Z,30.20
2018-04-02T22:53:54.563Z,29.92
2018-04-02T22:56:22.031Z,29.85
2018-04-02T22:58:49.488Z,30.00
2018-04-02T23:01:16.959Z,29.02
2018-04-02T23:03:44.426Z,28.77
2018-04-02T23:06:11.905Z,30.50
2018-04-02T23:08:40.145Z,30.00
2018-04-02T23:11:07.639Z,33.33
2018-04-02T23:13:36.024Z,29.83
2018-04-02T23:16:03.534Z,30.15
2018-04-02T23:18:31.243Z,28.65
2018-04-02T23:20:59.489Z,30.45
2018-04-02T23:23:26.950Z,28.95
2018-04-02T23:25:54.425Z,28.62
2018-04-02T23:28:21.883Z,30.77
2018-04-02T23:30:49.358Z,32.10
2018-04-02T23:33:16.816Z,30.45
2018-04-02T23:35:44.266Z,33.65
2018-04-02T23:38:11.728Z,32.10
2018-04-02T23:40:39.245Z,32.55
2018-04-02T23:43:06.710Z,31.60
2018-04-02T23:45:34.165Z,34.45
2018-04-02T23:48:01.709Z,35.30
2018-04-02T23:50:29.135Z,32.97
2018-04-02T23:52:56.606Z,33.42
2018-04-02T23:55:24.094Z,33.65
2018-04-02T23:57:51.614Z,35.97
